NCAR-RAP Real-Time Weather Data

Output produced by METARs form (01 December 2020  18:23 UTC)
found at http://weather.rap.ucar.edu/surface/
 
KRIC 011654Z 24013G19KT 10SM FEW045 SCT100 08/M03 A2977 RMK AO2 SLP086 T00831028
KRIC 011554Z 25017G23KT 10SM FEW035 SCT085 BKN110 07/M03 A2977 RMK AO2 SLP086 T00671028
KRIC 011454Z 25009G18KT 10SM FEW050 BKN075 06/M02 A2975 RMK AO2 SLP080 T00611022 53026
KRIC 011354Z 25011KT 10SM FEW050 BKN080 06/M02 A2972 RMK AO2 SLP070 T00561022
KRIC 011254Z 24012KT 10SM FEW090 04/M02 A2970 RMK AO2 SLP062 T00441022
KRIC 011154Z 23010KT 10SM FEW090 04/M02 A2968 RMK AO2 SLP053 70085 T00391017 10072 20039 53019
KRIC 011054Z 22009KT 10SM FEW090 04/M01 A2965 RMK AO2 SLP044 T00391011
KRIC 010954Z 23011G19KT 10SM FEW090 04/M01 A2963 RMK AO2 SLP038 T00441006
KRIC 010854Z 22012KT 10SM FEW090 05/00 A2962 RMK AO2 SLP035 T00500000 51015
KRIC 010754Z 22009KT 10SM BKN080 06/01 A2961 RMK AO2 SLP032 T00560006
KRIC 010654Z 22010KT 10SM SCT250 06/01 A2959 RMK AO2 SLP025 T00610011
KRIC 010554Z 24013KT 10SM FEW065 BKN250 07/02 A2958 RMK AO2 SLP020 T00720017 10144 20072 50006
KRIC 010454Z 24012KT 10SM SCT065 08/03 A2958 RMK AO2 SLP021 T00830028 402110083
KRIC 010354Z 24009KT 10SM BKN065 09/03 A2958 RMK AO2 SLP021 T00940033